sensor_id;sensor_type;location;lat;lon;timestamp;pressure;altitude;pressure_sealevel;temperature;humidity
53715;BME280;39608;55.630;37.864;2023-05-20T00:02:12;100486.97;;;12.75;42.81
53715;BME280;39608;55.630;37.864;2023-05-20T00:07:14;100464.66;;;12.73;42.64
53715;BME280;39608;55.630;37.864;2023-05-20T00:12:16;100468.44;;;12.77;42.72
53715;BME280;39608;55.630;37.864;2023-05-20T00:17:19;100467.94;;;12.75;42.80
53715;BME280;39608;55.630;37.864;2023-05-20T00:22:21;100463.91;;;12.67;42.89
53715;BME280;39608;55.630;37.864;2023-05-20T00:27:23;100467.72;;;12.66;43.19
53715;BME280;39608;55.630;37.864;2023-05-20T00:32:27;100467.38;;;12.73;43.09
53715;BME280;39608;55.630;37.864;2023-05-20T00:37:29;100459.00;;;12.69;43.32
53715;BME280;39608;55.630;37.864;2023-05-20T00:42:31;100469.66;;;12.60;43.84
53715;BME280;39608;55.630;37.864;2023-05-20T00:47:34;100476.75;;;12.61;44.25
53715;BME280;39608;55.630;37.864;2023-05-20T00:52:37;100475.41;;;12.59;44.11
53715;BME280;39608;55.630;37.864;2023-05-20T00:57:41;100471.38;;;12.51;44.34
53715;BME280;39608;55.630;37.864;2023-05-20T01:02:44;100469.44;;;12.57;44.88
53715;BME280;39608;55.630;37.864;2023-05-20T01:07:46;100469.44;;;12.57;44.89
53715;BME280;39608;55.630;37.864;2023-05-20T01:12:53;100445.34;;;12.40;45.25
53715;BME280;39608;55.630;37.864;2023-05-20T01:18:01;100470.00;;;12.54;44.94
53715;BME280;39608;55.630;37.864;2023-05-20T01:23:06;100472.22;;;12.46;45.30
53715;BME280;39608;55.630;37.864;2023-05-20T01:28:09;100454.28;;;12.45;45.44
53715;BME280;39608;55.630;37.864;2023-05-20T01:33:19;100462.50;;;12.35;45.94
53715;BME280;39608;55.630;37.864;2023-05-20T01:38:23;100461.41;;;12.36;46.09
53715;BME280;39608;55.630;37.864;2023-05-20T01:43:26;100470.13;;;12.38;46.03
53715;BME280;39608;55.630;37.864;2023-05-20T01:48:28;100468.00;;;12.30;46.35
53715;BME280;39608;55.630;37.864;2023-05-20T01:53:32;100474.25;;;12.30;46.90
53715;BME280;39608;55.630;37.864;2023-05-20T01:58:34;100468.56;;;12.27;46.83
53715;BME280;39608;55.630;37.864;2023-05-20T02:03:36;100480.00;;;12.24;47.08
53715;BME280;39608;55.630;37.864;2023-05-20T02:08:39;100479.19;;;12.23;47.48
53715;BME280;39608;55.630;37.864;2023-05-20T02:13:41;100469.38;;;12.27;47.40
53715;BME280;39608;55.630;37.864;2023-05-20T02:18:43;100462.31;;;12.26;47.52
53715;BME280;39608;55.630;37.864;2023-05-20T02:23:46;100461.13;;;12.38;47.80
53715;BME280;39608;55.630;37.864;2023-05-20T02:28:48;100467.94;;;12.40;47.72
53715;BME280;39608;55.630;37.864;2023-05-20T02:33:51;100470.34;;;12.42;47.86
53715;BME280;39608;55.630;37.864;2023-05-20T02:38:54;100467.03;;;12.50;48.00
53715;BME280;39608;55.630;37.864;2023-05-20T02:43:57;100468.97;;;12.44;48.00
53715;BME280;39608;55.630;37.864;2023-05-20T02:48:59;100460.84;;;12.39;48.18
53715;BME280;39608;55.630;37.864;2023-05-20T02:54:03;100479.91;;;12.39;48.44
53715;BME280;39608;55.630;37.864;2023-05-20T02:59:05;100472.50;;;12.45;48.54
53715;BME280;39608;55.630;37.864;2023-05-20T03:04:07;100477.41;;;12.48;48.50
53715;BME280;39608;55.630;37.864;2023-05-20T03:09:10;100477.81;;;12.60;48.52
53715;BME280;39608;55.630;37.864;2023-05-20T03:14:13;100482.50;;;12.55;48.87
53715;BME280;39608;55.630;37.864;2023-05-20T03:19:15;100485.78;;;12.52;48.75
53715;BME280;39608;55.630;37.864;2023-05-20T03:24:19;100482.84;;;12.48;49.35
53715;BME280;39608;55.630;37.864;2023-05-20T03:29:23;100476.66;;;12.37;49.45
53715;BME280;39608;55.630;37.864;2023-05-20T03:34:25;100481.03;;;12.33;50.12
53715;BME280;39608;55.630;37.864;2023-05-20T03:39:29;100486.09;;;12.45;49.70
53715;BME280;39608;55.630;37.864;2023-05-20T03:44:31;100476.84;;;12.46;49.64
53715;BME280;39608;55.630;37.864;2023-05-20T03:49:33;100474.13;;;12.46;50.12
53715;BME280;39608;55.630;37.864;2023-05-20T03:54:36;100484.41;;;12.54;50.44
53715;BME280;39608;55.630;37.864;2023-05-20T03:59:39;100478.13;;;12.59;50.04
53715;BME280;39608;55.630;37.864;2023-05-20T04:04:41;100474.97;;;12.76;50.20
53715;BME280;39608;55.630;37.864;2023-05-20T04:09:45;100477.91;;;12.84;49.84
53715;BME280;39608;55.630;37.864;2023-05-20T04:14:47;100482.88;;;12.77;50.48
53715;BME280;39608;55.630;37.864;2023-05-20T04:19:52;100469.16;;;12.58;50.88
53715;BME280;39608;55.630;37.864;2023-05-20T04:24:56;100480.72;;;12.74;50.33
53715;BME280;39608;55.630;37.864;2023-05-20T04:29:58;100477.94;;;12.79;50.47
53715;BME280;39608;55.630;37.864;2023-05-20T04:35:03;100485.03;;;12.80;51.05
53715;BME280;39608;55.630;37.864;2023-05-20T04:40:11;100473.94;;;13.01;50.78
53715;BME280;39608;55.630;37.864;2023-05-20T04:45:13;100480.28;;;13.21;50.53
53715;BME280;39608;55.630;37.864;2023-05-20T04:50:15;100475.31;;;13.28;50.28
53715;BME280;39608;55.630;37.864;2023-05-20T04:55:18;100465.81;;;13.25;50.68
53715;BME280;39608;55.630;37.864;2023-05-20T05:00:21;100476.13;;;13.52;50.04
53715;BME280;39608;55.630;37.864;2023-05-20T05:05:23;100460.81;;;13.57;49.95
53715;BME280;39608;55.630;37.864;2023-05-20T05:10:26;100467.56;;;13.64;50.02
53715;BME280;39608;55.630;37.864;2023-05-20T05:15:29;100462.59;;;13.91;49.44
53715;BME280;39608;55.630;37.864;2023-05-20T05:20:31;100453.31;;;14.11;49.33
53715;BME280;39608;55.630;37.864;2023-05-20T05:25:35;100471.53;;;14.67;48.64
53715;BME280;39608;55.630;37.864;2023-05-20T05:30:36;100458.03;;;14.76;48.43
53715;BME280;39608;55.630;37.864;2023-05-20T05:35:40;100466.78;;;15.06;47.95
53715;BME280;39608;55.630;37.864;2023-05-20T05:40:43;100458.91;;;15.04;47.93
53715;BME280;39608;55.630;37.864;2023-05-20T05:45:45;100465.81;;;14.69;48.18
53715;BME280;39608;55.630;37.864;2023-05-20T05:50:47;100458.78;;;14.44;48.61
53715;BME280;39608;55.630;37.864;2023-05-20T05:55:51;100448.16;;;14.61;48.90
53715;BME280;39608;55.630;37.864;2023-05-20T06:00:53;100455.94;;;15.01;48.22
53715;BME280;39608;55.630;37.864;2023-05-20T06:05:55;100455.78;;;15.11;47.57
53715;BME280;39608;55.630;37.864;2023-05-20T06:10:59;100456.88;;;15.24;47.84
53715;BME280;39608;55.630;37.864;2023-05-20T06:16:01;100458.28;;;15.77;47.02
53715;BME280;39608;55.630;37.864;2023-05-20T06:21:03;100461.69;;;16.11;46.45
53715;BME280;39608;55.630;37.864;2023-05-20T06:26:07;100454.34;;;16.20;46.06
53715;BME280;39608;55.630;37.864;2023-05-20T06:31:09;100462.84;;;16.18;45.91
53715;BME280;39608;55.630;37.864;2023-05-20T06:36:11;100460.69;;;16.29;45.55
53715;BME280;39608;55.630;37.864;2023-05-20T06:41:14;100469.19;;;16.41;45.39
53715;BME280;39608;55.630;37.864;2023-05-20T06:46:16;100476.00;;;16.98;44.28
53715;BME280;39608;55.630;37.864;2023-05-20T06:51:18;100453.00;;;17.08;44.13
53715;BME280;39608;55.630;37.864;2023-05-20T06:56:21;100474.56;;;17.01;44.12
53715;BME280;39608;55.630;37.864;2023-05-20T07:01:24;100465.09;;;16.84;44.21
53715;BME280;39608;55.630;37.864;2023-05-20T07:06:26;100468.78;;;17.02;43.85
53715;BME280;39608;55.630;37.864;2023-05-20T07:11:31;100465.59;;;16.86;43.54
53715;BME280;39608;55.630;37.864;2023-05-20T07:16:33;100454.41;;;16.97;42.86
53715;BME280;39608;55.630;37.864;2023-05-20T07:21:36;100444.19;;;16.88;42.59
53715;BME280;39608;55.630;37.864;2023-05-20T07:26:39;100445.06;;;16.98;42.45
53715;BME280;39608;55.630;37.864;2023-05-20T07:31:41;100449.72;;;17.28;41.97
53715;BME280;39608;55.630;37.864;2023-05-20T07:36:44;100460.28;;;17.13;41.82
53715;BME280;39608;55.630;37.864;2023-05-20T07:41:47;100453.66;;;17.14;41.87
53715;BME280;39608;55.630;37.864;2023-05-20T07:46:49;100439.66;;;17.15;41.18
53715;BME280;39608;55.630;37.864;2023-05-20T07:51:51;100429.75;;;17.05;40.74
53715;BME280;39608;55.630;37.864;2023-05-20T07:56:55;100454.75;;;17.04;40.81
53715;BME280;39608;55.630;37.864;2023-05-20T08:01:57;100428.63;;;16.98;40.64
53715;BME280;39608;55.630;37.864;2023-05-20T08:06:59;100441.06;;;17.53;39.73
53715;BME280;39608;55.630;37.864;2023-05-20T08:12:03;100437.97;;;17.37;39.50
53715;BME280;39608;55.630;37.864;2023-05-20T08:17:05;100436.34;;;17.36;39.60
53715;BME280;39608;55.630;37.864;2023-05-20T08:22:07;100436.47;;;17.88;38.44
53715;BME280;39608;55.630;37.864;2023-05-20T08:27:10;100424.53;;;18.02;38.48
53715;BME280;39608;55.630;37.864;2023-05-20T08:32:12;100417.06;;;17.67;37.13
53715;BME280;39608;55.630;37.864;2023-05-20T08:37:14;100434.13;;;17.55;36.89
53715;BME280;39608;55.630;37.864;2023-05-20T08:42:21;100421.97;;;18.32;36.31
53715;BME280;39608;55.630;37.864;2023-05-20T08:47:25;100436.81;;;19.13;34.96
53715;BME280;39608;55.630;37.864;2023-05-20T08:52:28;100425.94;;;18.69;34.72
53715;BME280;39608;55.630;37.864;2023-05-20T08:57:34;100423.41;;;18.38;35.03
53715;BME280;39608;55.630;37.864;2023-05-20T09:02:36;100412.19;;;18.60;34.95
53715;BME280;39608;55.630;37.864;2023-05-20T09:07:38;100431.91;;;18.71;35.51
53715;BME280;39608;55.630;37.864;2023-05-20T09:12:43;100427.53;;;18.79;35.51
53715;BME280;39608;55.630;37.864;2023-05-20T09:17:48;100433.72;;;18.41;36.08
53715;BME280;39608;55.630;37.864;2023-05-20T09:22:51;100442.59;;;17.85;36.88
53715;BME280;39608;55.630;37.864;2023-05-20T09:27:55;100458.53;;;17.66;37.47
53715;BME280;39608;55.630;37.864;2023-05-20T09:32:58;100438.81;;;17.55;37.71
53715;BME280;39608;55.630;37.864;2023-05-20T09:38:01;100459.34;;;17.17;38.56
53715;BME280;39608;55.630;37.864;2023-05-20T09:43:07;100460.06;;;17.00;38.92
53715;BME280;39608;55.630;37.864;2023-05-20T09:48:11;100449.25;;;16.72;39.12
53715;BME280;39608;55.630;37.864;2023-05-20T09:53:13;100456.16;;;16.92;38.97
53715;BME280;39608;55.630;37.864;2023-05-20T09:58:18;100454.91;;;16.99;38.73
53715;BME280;39608;55.630;37.864;2023-05-20T10:03:21;100457.13;;;17.28;38.28
53715;BME280;39608;55.630;37.864;2023-05-20T10:08:40;100458.19;;;17.58;38.18
53715;BME280;39608;55.630;37.864;2023-05-20T10:13:58;100465.94;;;17.74;37.70
53715;BME280;39608;55.630;37.864;2023-05-20T10:19:09;100473.97;;;17.53;38.05
53715;BME280;39608;55.630;37.864;2023-05-20T10:24:12;100477.09;;;17.60;37.99
53715;BME280;39608;55.630;37.864;2023-05-20T10:29:17;100474.06;;;17.88;37.92
53715;BME280;39608;55.630;37.864;2023-05-20T10:34:20;100475.94;;;17.61;38.58
53715;BME280;39608;55.630;37.864;2023-05-20T10:39:25;100469.81;;;17.64;38.34
53715;BME280;39608;55.630;37.864;2023-05-20T10:44:39;100482.56;;;17.60;38.67
53715;BME280;39608;55.630;37.864;2023-05-20T10:49:43;100464.31;;;17.15;38.80
53715;BME280;39608;55.630;37.864;2023-05-20T10:54:47;100474.56;;;17.01;39.15
53715;BME280;39608;55.630;37.864;2023-05-20T10:59:56;100473.63;;;17.05;39.15
53715;BME280;39608;55.630;37.864;2023-05-20T11:04:59;100477.81;;;17.03;39.34
53715;BME280;39608;55.630;37.864;2023-05-20T11:10:07;100470.88;;;16.83;39.23
53715;BME280;39608;55.630;37.864;2023-05-20T11:15:11;100490.28;;;16.64;39.91
53715;BME280;39608;55.630;37.864;2023-05-20T11:20:14;100491.72;;;16.38;40.61
53715;BME280;39608;55.630;37.864;2023-05-20T11:25:16;100480.50;;;16.26;40.65
53715;BME280;39608;55.630;37.864;2023-05-20T11:30:20;100487.50;;;16.41;40.48
53715;BME280;39608;55.630;37.864;2023-05-20T11:35:23;100488.84;;;16.66;39.93
53715;BME280;39608;55.630;37.864;2023-05-20T11:40:26;100488.75;;;16.80;39.15
53715;BME280;39608;55.630;37.864;2023-05-20T11:45:39;100490.34;;;16.95;38.92
53715;BME280;39608;55.630;37.864;2023-05-20T11:50:43;100481.94;;;16.91;38.98
53715;BME280;39608;55.630;37.864;2023-05-20T11:55:47;100472.78;;;16.96;38.61
53715;BME280;39608;55.630;37.864;2023-05-20T12:00:52;100484.06;;;16.95;38.24
53715;BME280;39608;55.630;37.864;2023-05-20T12:05:54;100488.94;;;17.06;37.73
53715;BME280;39608;55.630;37.864;2023-05-20T12:10:56;100465.69;;;17.35;36.79
53715;BME280;39608;55.630;37.864;2023-05-20T12:15:59;100473.03;;;17.57;36.50
53715;BME280;39608;55.630;37.864;2023-05-20T12:21:01;100466.78;;;17.66;35.62
53715;BME280;39608;55.630;37.864;2023-05-20T12:26:04;100470.66;;;17.73;35.46
53715;BME280;39608;55.630;37.864;2023-05-20T12:31:07;100465.38;;;17.94;34.58
53715;BME280;39608;55.630;37.864;2023-05-20T12:36:09;100469.34;;;17.71;34.89
53715;BME280;39608;55.630;37.864;2023-05-20T12:41:12;100465.34;;;17.77;34.81
53715;BME280;39608;55.630;37.864;2023-05-20T12:46:17;100466.22;;;17.95;35.19
53715;BME280;39608;55.630;37.864;2023-05-20T12:51:19;100453.72;;;17.80;35.52
53715;BME280;39608;55.630;37.864;2023-05-20T12:56:21;100458.63;;;18.01;35.75
53715;BME280;39608;55.630;37.864;2023-05-20T13:01:26;100456.50;;;18.33;35.26
53715;BME280;39608;55.630;37.864;2023-05-20T13:06:28;100444.03;;;18.61;35.22
53715;BME280;39608;55.630;37.864;2023-05-20T13:11:30;100453.56;;;18.90;34.47
53715;BME280;39608;55.630;37.864;2023-05-20T13:16:34;100453.78;;;19.15;34.16
53715;BME280;39608;55.630;37.864;2023-05-20T13:21:36;100454.97;;;18.96;33.92
53715;BME280;39608;55.630;37.864;2023-05-20T13:26:38;100449.59;;;18.18;35.04
53715;BME280;39608;55.630;37.864;2023-05-20T13:31:42;100474.84;;;17.71;36.13
53715;BME280;39608;55.630;37.864;2023-05-20T13:36:44;100469.38;;;16.90;38.23
53715;BME280;39608;55.630;37.864;2023-05-20T13:41:47;100488.38;;;16.28;39.10
53715;BME280;39608;55.630;37.864;2023-05-20T13:46:50;100501.66;;;15.98;39.40
53715;BME280;39608;55.630;37.864;2023-05-20T13:51:52;100506.28;;;15.69;39.97
53715;BME280;39608;55.630;37.864;2023-05-20T13:56:54;100482.59;;;15.51;40.29
53715;BME280;39608;55.630;37.864;2023-05-20T14:01:58;100499.00;;;15.65;39.86
53715;BME280;39608;55.630;37.864;2023-05-20T14:07:00;100486.97;;;15.66;39.77
53715;BME280;39608;55.630;37.864;2023-05-20T14:12:03;100484.81;;;15.77;39.30
53715;BME280;39608;55.630;37.864;2023-05-20T14:17:07;100484.50;;;15.92;39.38
53715;BME280;39608;55.630;37.864;2023-05-20T14:22:09;100468.97;;;16.15;39.02
53715;BME280;39608;55.630;37.864;2023-05-20T14:27:14;100480.50;;;16.26;38.87
53715;BME280;39608;55.630;37.864;2023-05-20T14:32:17;100464.31;;;16.38;38.78
53715;BME280;39608;55.630;37.864;2023-05-20T14:37:19;100470.22;;;16.54;38.55
53715;BME280;39608;55.630;37.864;2023-05-20T14:42:22;100460.63;;;16.66;37.91
53715;BME280;39608;55.630;37.864;2023-05-20T14:47:26;100452.94;;;16.68;37.72
53715;BME280;39608;55.630;37.864;2023-05-20T14:52:28;100457.06;;;16.56;37.97
53715;BME280;39608;55.630;37.864;2023-05-20T14:57:30;100448.97;;;16.51;38.07
53715;BME280;39608;55.630;37.864;2023-05-20T15:02:33;100459.16;;;16.59;37.93
53715;BME280;39608;55.630;37.864;2023-05-20T15:07:35;100463.75;;;16.50;38.08
53715;BME280;39608;55.630;37.864;2023-05-20T15:12:37;100456.06;;;16.52;38.08
53715;BME280;39608;55.630;37.864;2023-05-20T15:17:41;100463.66;;;16.55;38.29
53715;BME280;39608;55.630;37.864;2023-05-20T15:22:43;100439.38;;;16.40;37.82
53715;BME280;39608;55.630;37.864;2023-05-20T15:27:47;100448.53;;;16.58;38.25
53715;BME280;39608;55.630;37.864;2023-05-20T15:32:52;100444.63;;;16.82;37.27
53715;BME280;39608;55.630;37.864;2023-05-20T15:37:54;100441.66;;;16.69;37.21
53715;BME280;39608;55.630;37.864;2023-05-20T15:42:56;100416.84;;;16.43;37.52
53715;BME280;39608;55.630;37.864;2023-05-20T15:48:01;100439.44;;;16.49;37.79
53715;BME280;39608;55.630;37.864;2023-05-20T15:53:05;100440.69;;;16.42;37.85
53715;BME280;39608;55.630;37.864;2023-05-20T15:58:07;100444.97;;;16.35;38.59
53715;BME280;39608;55.630;37.864;2023-05-20T16:03:10;100449.00;;;16.15;38.94
53715;BME280;39608;55.630;37.864;2023-05-20T16:08:13;100446.72;;;15.94;39.69
53715;BME280;39608;55.630;37.864;2023-05-20T16:13:15;100439.34;;;15.67;40.19
53715;BME280;39608;55.630;37.864;2023-05-20T16:18:18;100442.00;;;15.58;41.15
53715;BME280;39608;55.630;37.864;2023-05-20T16:23:20;100431.28;;;15.48;40.76
53715;BME280;39608;55.630;37.864;2023-05-20T16:28:22;100435.31;;;15.50;40.94
53715;BME280;39608;55.630;37.864;2023-05-20T16:33:26;100428.94;;;15.55;41.04
53715;BME280;39608;55.630;37.864;2023-05-20T16:38:28;100435.41;;;15.59;41.07
53715;BME280;39608;55.630;37.864;2023-05-20T16:43:31;100441.69;;;15.60;41.14
53715;BME280;39608;55.630;37.864;2023-05-20T16:48:35;100448.16;;;15.64;40.96
53715;BME280;39608;55.630;37.864;2023-05-20T16:53:37;100449.88;;;15.60;40.88
53715;BME280;39608;55.630;37.864;2023-05-20T16:58:39;100442.59;;;15.55;41.15
53715;BME280;39608;55.630;37.864;2023-05-20T17:03:42;100448.06;;;15.55;41.07
53715;BME280;39608;55.630;37.864;2023-05-20T17:08:44;100453.16;;;15.48;41.11
53715;BME280;39608;55.630;37.864;2023-05-20T17:13:46;100459.53;;;15.43;41.71
53715;BME280;39608;55.630;37.864;2023-05-20T17:18:50;100445.56;;;15.17;42.96
53715;BME280;39608;55.630;37.864;2023-05-20T17:23:53;100458.06;;;14.90;43.82
53715;BME280;39608;55.630;37.864;2023-05-20T17:28:55;100461.22;;;14.64;44.92
53715;BME280;39608;55.630;37.864;2023-05-20T17:33:58;100453.50;;;14.33;46.24
53715;BME280;39608;55.630;37.864;2023-05-20T17:39:01;100455.88;;;14.21;46.71
53715;BME280;39608;55.630;37.864;2023-05-20T17:44:04;100453.00;;;13.93;48.25
53715;BME280;39608;55.630;37.864;2023-05-20T17:49:08;100454.53;;;13.61;49.48
53715;BME280;39608;55.630;37.864;2023-05-20T17:54:10;100466.16;;;13.43;50.66
53715;BME280;39608;55.630;37.864;2023-05-20T17:59:12;100462.66;;;13.42;50.05
53715;BME280;39608;55.630;37.864;2023-05-20T18:04:16;100455.28;;;13.43;51.36
53715;BME280;39608;55.630;37.864;2023-05-20T18:09:18;100461.56;;;13.43;51.59
53715;BME280;39608;55.630;37.864;2023-05-20T18:14:20;100448.91;;;13.23;52.12
53715;BME280;39608;55.630;37.864;2023-05-20T18:19:24;100449.56;;;13.15;53.07
53715;BME280;39608;55.630;37.864;2023-05-20T18:24:26;100457.53;;;13.06;52.53
53715;BME280;39608;55.630;37.864;2023-05-20T18:29:28;100457.53;;;13.06;53.63
53715;BME280;39608;55.630;37.864;2023-05-20T18:34:31;100453.94;;;13.11;54.20
53715;BME280;39608;55.630;37.864;2023-05-20T18:39:34;100439.03;;;13.08;53.95
53715;BME280;39608;55.630;37.864;2023-05-20T18:44:36;100438.16;;;13.13;54.33
53715;BME280;39608;55.630;37.864;2023-05-20T18:49:39;100431.25;;;13.21;54.07
53715;BME280;39608;55.630;37.864;2023-05-20T18:54:41;100423.94;;;13.16;53.53
53715;BME280;39608;55.630;37.864;2023-05-20T18:59:43;100424.00;;;13.11;54.80
53715;BME280;39608;55.630;37.864;2023-05-20T19:04:48;100414.38;;;13.18;55.49
53715;BME280;39608;55.630;37.864;2023-05-20T19:09:51;100413.94;;;13.11;54.66
53715;BME280;39608;55.630;37.864;2023-05-20T19:14:54;100401.00;;;12.98;54.98
53715;BME280;39608;55.630;37.864;2023-05-20T19:19:57;100401.06;;;12.93;56.18
53715;BME280;39608;55.630;37.864;2023-05-20T19:24:59;100389.47;;;12.82;56.30
53715;BME280;39608;55.630;37.864;2023-05-20T19:30:02;100378.66;;;12.72;56.92
53715;BME280;39608;55.630;37.864;2023-05-20T19:35:07;100383.59;;;12.70;58.23
53715;BME280;39608;55.630;37.864;2023-05-20T19:40:11;100371.91;;;12.69;57.79
53715;BME280;39608;55.630;37.864;2023-05-20T19:45:13;100373.28;;;12.66;57.59
53715;BME280;39608;55.630;37.864;2023-05-20T19:50:17;100372.47;;;12.66;56.92
53715;BME280;39608;55.630;37.864;2023-05-20T19:55:19;100361.19;;;12.54;58.00
53715;BME280;39608;55.630;37.864;2023-05-20T20:00:21;100336.56;;;12.40;57.48
53715;BME280;39608;55.630;37.864;2023-05-20T20:05:25;100347.44;;;12.40;58.29
53715;BME280;39608;55.630;37.864;2023-05-20T20:10:27;100340.34;;;12.39;57.89
53715;BME280;39608;55.630;37.864;2023-05-20T20:15:30;100343.59;;;12.41;58.94
53715;BME280;39608;55.630;37.864;2023-05-20T20:20:34;100331.91;;;12.40;58.56
53715;BME280;39608;55.630;37.864;2023-05-20T20:25:39;100337.09;;;12.37;59.29
53715;BME280;39608;55.630;37.864;2023-05-20T20:30:42;100328.13;;;12.36;59.57
53715;BME280;39608;55.630;37.864;2023-05-20T20:35:45;100328.72;;;12.33;59.76
53715;BME280;39608;55.630;37.864;2023-05-20T20:40:48;100315.72;;;12.25;59.82
53715;BME280;39608;55.630;37.864;2023-05-20T20:45:53;100303.81;;;12.21;60.05
53715;BME280;39608;55.630;37.864;2023-05-20T20:50:57;100307.09;;;12.18;60.59
53715;BME280;39608;55.630;37.864;2023-05-20T20:56:01;100302.78;;;12.11;60.76
53715;BME280;39608;55.630;37.864;2023-05-20T21:01:04;100276.28;;;11.98;61.66
53715;BME280;39608;55.630;37.864;2023-05-20T21:06:07;100280.56;;;12.04;62.02
53715;BME280;39608;55.630;37.864;2023-05-20T21:11:12;100293.34;;;12.04;61.77
53715;BME280;39608;55.630;37.864;2023-05-20T21:16:14;100281.94;;;12.02;62.67
53715;BME280;39608;55.630;37.864;2023-05-20T21:21:18;100280.56;;;12.04;61.73
53715;BME280;39608;55.630;37.864;2023-05-20T21:26:21;100274.13;;;11.90;62.21
53715;BME280;39608;55.630;37.864;2023-05-20T21:31:24;100280.66;;;11.94;62.71
53715;BME280;39608;55.630;37.864;2023-05-20T21:36:27;100255.63;;;11.92;62.77
53715;BME280;39608;55.630;37.864;2023-05-20T21:41:30;100269.50;;;11.90;62.91
53715;BME280;39608;55.630;37.864;2023-05-20T21:46:32;100258.09;;;11.93;62.72
53715;BME280;39608;55.630;37.864;2023-05-20T21:51:35;100252.38;;;11.95;63.18
53715;BME280;39608;55.630;37.864;2023-05-20T21:56:37;100258.69;;;11.85;63.36
53715;BME280;39608;55.630;37.864;2023-05-20T22:01:39;100248.16;;;11.78;63.06
53715;BME280;39608;55.630;37.864;2023-05-20T22:06:43;100242.44;;;11.80;63.58
53715;BME280;39608;55.630;37.864;2023-05-20T22:11:45;100242.94;;;11.82;63.93
53715;BME280;39608;55.630;37.864;2023-05-20T22:16:47;100232.94;;;11.77;63.78
53715;BME280;39608;55.630;37.864;2023-05-20T22:21:51;100229.59;;;11.86;64.52
53715;BME280;39608;55.630;37.864;2023-05-20T22:26:53;100235.53;;;11.88;63.94
53715;BME280;39608;55.630;37.864;2023-05-20T22:31:55;100231.22;;;11.87;63.58
53715;BME280;39608;55.630;37.864;2023-05-20T22:36:59;100200.56;;;11.81;63.35
53715;BME280;39608;55.630;37.864;2023-05-20T22:42:01;100208.66;;;11.86;63.85
53715;BME280;39608;55.630;37.864;2023-05-20T22:47:03;100204.34;;;11.85;63.95
53715;BME280;39608;55.630;37.864;2023-05-20T22:52:07;100195.59;;;11.88;64.04
53715;BME280;39608;55.630;37.864;2023-05-20T22:57:09;100191.50;;;11.91;64.49
53715;BME280;39608;55.630;37.864;2023-05-20T23:02:11;100171.16;;;11.88;64.10
53715;BME280;39608;55.630;37.864;2023-05-20T23:07:15;100184.06;;;12.02;65.06
53715;BME280;39608;55.630;37.864;2023-05-20T23:12:18;100182.97;;;12.03;64.60
53715;BME280;39608;55.630;37.864;2023-05-20T23:17:20;100172.41;;;12.01;64.00
53715;BME280;39608;55.630;37.864;2023-05-20T23:22:24;100156.69;;;11.93;64.65
53715;BME280;39608;55.630;37.864;2023-05-20T23:27:26;100162.41;;;11.96;65.09
53715;BME280;39608;55.630;37.864;2023-05-20T23:32:28;100156.41;;;11.94;64.68
53715;BME280;39608;55.630;37.864;2023-05-20T23:37:31;100164.31;;;11.91;64.74
53715;BME280;39608;55.630;37.864;2023-05-20T23:42:34;100163.78;;;11.89;64.88
53715;BME280;39608;55.630;37.864;2023-05-20T23:47:36;100155.63;;;11.89;65.27
53715;BME280;39608;55.630;37.864;2023-05-20T23:52:39;100158.31;;;11.99;65.50
53715;BME280;39608;55.630;37.864;2023-05-20T23:57:41;100149.59;;;11.97;65.07
